Time;durP1;ratioP1;P1;durP2;ratioP2;P2;SDS_P1;SDS_P2;PMS_P1;PMS_P2;Temp;Humidity;BMP_temperature;BMP_pressure;BME280_temperature;BME280_humidity;BME280_pressure;Samples;Min_cycle;Max_cycle;Signal;HPM_P1;HPM_P2
2023/10/16 00:01:10;;;;;;;0.10;0.10;;;7.20;72.00;;;;;;5053541;28;20044;-68
2023/10/16 00:03:39;;;;;;;0.43;0.35;;;7.20;71.60;;;;;;5071113;28;20033;-68
2023/10/16 00:06:06;;;;;;;0.30;0.20;;;7.20;72.00;;;;;;5070823;28;20064;-68
2023/10/16 00:11:23;;;;;;;0.10;0.10;;;7.20;72.30;;;;;;5070463;28;20044;-68
2023/10/16 00:13:50;;;;;;;0.10;0.10;;;7.20;72.20;;;;;;5072479;28;20120;-68
2023/10/16 00:16:20;;;;;;;0.25;0.25;;;7.10;71.70;;;;;;5070731;28;20477;-68
2023/10/16 00:18:47;;;;;;;0.20;0.20;;;7.10;72.30;;;;;;5071327;28;20314;-68
2023/10/16 00:21:14;;;;;;;0.22;0.20;;;7.10;72.20;;;;;;5069893;28;20036;-68
2023/10/16 00:23:41;;;;;;;0.20;0.20;;;7.10;70.90;;;;;;5071213;28;20545;-68
2023/10/16 00:26:26;;;;;;;0.20;0.20;;;6.90;70.90;;;;;;5070794;28;20047;-68
2023/10/16 00:29:17;;;;;;;0.20;0.20;;;6.90;71.30;;;;;;5072387;28;20439;-68
2023/10/16 00:31:42;;;;;;;0.10;0.10;;;6.80;71.50;;;;;;5070134;28;20040;-68
2023/10/16 00:34:09;;;;;;;1.45;0.50;;;6.80;71.60;;;;;;5072051;28;20055;-68
2023/10/16 00:36:35;;;;;;;1.13;0.43;;;6.80;71.70;;;;;;5072233;28;20043;-68
2023/10/16 00:41:49;;;;;;;0.40;0.30;;;6.80;72.00;;;;;;5071108;28;20056;-68
2023/10/16 00:44:17;;;;;;;0.32;0.30;;;6.80;71.90;;;;;;5072417;28;20025;-68
2023/10/16 00:46:48;;;;;;;0.15;0.15;;;6.80;72.00;;;;;;5070590;28;20040;-68
2023/10/16 00:49:19;;;;;;;4.13;1.70;;;6.70;71.90;;;;;;5071061;28;20044;-68
2023/10/16 00:51:46;;;;;;;3.35;2.45;;;6.80;71.90;;;;;;5069899;28;20037;-68
2023/10/16 00:54:38;;;;;;;3.05;1.80;;;6.80;71.70;;;;;;5053896;28;20033;-68
2023/10/16 00:59:50;;;;;;;1.15;0.50;;;6.70;70.80;;;;;;5072069;28;20035;-68
2023/10/16 01:02:17;;;;;;;1.65;0.75;;;6.60;70.30;;;;;;5071086;28;20072;-68
2023/10/16 01:04:46;;;;;;;0.40;0.20;;;6.60;70.40;;;;;;5071676;28;20029;-68
2023/10/16 01:07:15;;;;;;;0.20;0.20;;;6.40;69.60;;;;;;5071624;28;20188;-68
2023/10/16 01:09:42;;;;;;;0.45;0.45;;;6.40;69.80;;;;;;5075601;28;20040;-68
2023/10/16 01:12:11;;;;;;;0.40;0.40;;;6.30;70.10;;;;;;5075019;28;20489;-68
2023/10/16 01:14:39;;;;;;;0.13;0.13;;;6.30;70.40;;;;;;5074304;28;20032;-68
2023/10/16 01:19:51;;;;;;;0.20;0.20;;;6.30;69.90;;;;;;5074389;28;20149;-68
2023/10/16 01:22:17;;;;;;;0.45;0.35;;;6.40;70.60;;;;;;5074860;28;20044;-68
2023/10/16 01:24:46;;;;;;;0.10;0.10;;;6.30;70.60;;;;;;5075339;28;20036;-68
2023/10/16 01:27:26;;;;;;;0.10;0.10;;;6.30;71.00;;;;;;5073663;28;20043;-68
2023/10/16 01:29:53;;;;;;;0.35;0.30;;;6.30;70.50;;;;;;5059411;28;20052;-68
2023/10/16 01:32:19;;;;;;;0.38;0.22;;;6.30;71.30;;;;;;5056298;28;20032;-68
2023/10/16 01:34:46;;;;;;;0.20;0.20;;;6.30;71.70;;;;;;5073634;28;20036;-68
2023/10/16 01:37:17;;;;;;;0.17;0.17;;;6.40;71.50;;;;;;5073714;28;20558;-68
2023/10/16 01:42:30;;;;;;;0.10;0.10;;;6.40;71.20;;;;;;5073678;28;20409;-68
2023/10/16 01:44:56;;;;;;;0.80;0.40;;;6.50;71.40;;;;;;5073534;28;20028;-68
2023/10/16 01:47:22;;;;;;;0.65;0.47;;;6.50;71.40;;;;;;5073322;28;20512;-68
2023/10/16 01:49:48;;;;;;;;;;;6.40;71.50;;;;;;5075602;28;20045;-68
2023/10/16 01:52:14;;;;;;;0.50;0.43;;;6.50;71.70;;;;;;5055905;28;19978;-68
2023/10/16 01:54:44;;;;;;;;;;;6.50;71.80;;;;;;5075279;28;20123;-68
2023/10/16 01:57:12;;;;;;;0.47;0.30;;;6.50;72.00;;;;;;5089956;28;19951;-68
2023/10/16 01:59:58;;;;;;;0.30;0.30;;;6.40;72.00;;;;;;5074853;28;20059;-68
2023/10/16 02:02:25;;;;;;;1.03;0.43;;;6.40;73.00;;;;;;5074120;28;20500;-68
2023/10/16 02:04:51;;;;;;;1.35;0.55;;;6.40;73.20;;;;;;5056533;28;20094;-68
2023/10/16 02:07:17;;;;;;;1.85;0.98;;;6.30;73.40;;;;;;5073240;28;20378;-67
2023/10/16 02:09:45;;;;;;;0.28;0.28;;;6.30;73.50;;;;;;5074717;28;20071;-68
2023/10/16 02:12:14;;;;;;;1.30;0.82;;;6.30;73.50;;;;;;5073333;28;20127;-68
2023/10/16 02:14:41;;;;;;;1.58;0.82;;;6.30;73.20;;;;;;5073214;28;20040;-68
2023/10/16 02:17:14;;;;;;;1.50;0.65;;;6.20;72.70;;;;;;5072804;28;20485;-68
2023/10/16 02:19:44;;;;;;;0.13;0.13;;;6.10;72.70;;;;;;5074151;28;20119;-68
2023/10/16 02:22:32;;;;;;;0.45;0.45;;;6.00;72.40;;;;;;5073577;28;20047;-68
2023/10/16 02:24:59;;;;;;;1.15;0.30;;;6.00;72.40;;;;;;5073036;28;20435;-67
2023/10/16 02:27:25;;;;;;;0.13;0.13;;;6.00;72.40;;;;;;5073823;28;20413;-68
2023/10/16 02:29:54;;;;;;;0.43;0.38;;;6.00;72.60;;;;;;5074274;28;20093;-68
2023/10/16 02:32:23;;;;;;;0.80;0.50;;;6.00;72.40;;;;;;5071950;28;20071;-68
2023/10/16 02:34:50;;;;;;;0.20;0.20;;;6.10;72.40;;;;;;5073782;28;20488;-68
2023/10/16 02:37:16;;;;;;;0.57;0.45;;;6.00;72.10;;;;;;5072435;28;20028;-68
2023/10/16 02:39:50;;;;;;;0.68;0.40;;;6.10;72.50;;;;;;5074051;28;20040;-67
2023/10/16 02:42:16;;;;;;;1.35;0.90;;;6.20;72.80;;;;;;5073226;28;20447;-68
2023/10/16 02:44:42;;;;;;;;;;;6.30;72.90;;;;;;5073177;28;20033;-68
2023/10/16 02:47:27;;;;;;;4.13;0.47;;;6.30;72.90;;;;;;5055455;28;20478;-68
2023/10/16 02:49:53;;;;;;;0.30;0.30;;;6.30;73.10;;;;;;5073782;28;20032;-67
2023/10/16 02:52:19;;;;;;;1.25;0.93;;;6.20;73.20;;;;;;5054773;28;20389;-67
2023/10/16 02:54:46;;;;;;;0.47;0.38;;;6.30;73.40;;;;;;5073815;28;20041;-67
2023/10/16 02:57:14;;;;;;;0.38;0.35;;;6.30;73.40;;;;;;5073166;28;20032;-67
2023/10/16 02:59:43;;;;;;;0.93;0.30;;;6.40;73.60;;;;;;5072473;28;20036;-67
2023/10/16 03:05:05;;;;;;;0.80;0.35;;;6.50;73.70;;;;;;5072417;28;20114;-67
2023/10/16 03:07:31;;;;;;;0.50;0.28;;;6.50;73.60;;;;;;5073423;28;20465;-67
2023/10/16 03:09:57;;;;;;;0.30;0.30;;;6.60;73.60;;;;;;5073551;28;20393;-67
2023/10/16 03:12:24;;;;;;;0.88;0.45;;;6.60;73.60;;;;;;5072961;28;20040;-67
2023/10/16 03:15:01;;;;;;;0.50;0.32;;;6.60;74.10;;;;;;5071927;28;20060;-67
2023/10/16 03:17:36;;;;;;;0.75;0.50;;;6.70;73.80;;;;;;5071803;28;20051;-67
2023/10/16 03:20:20;;;;;;;2.03;1.35;;;6.70;73.60;;;;;;5072766;28;20083;-67
2023/10/16 03:23:06;;;;;;;2.00;1.30;;;6.70;73.60;;;;;;5071759;28;20128;-67
2023/10/16 03:25:53;;;;;;;1.07;0.50;;;6.80;73.80;;;;;;5071508;28;20048;-67
2023/10/16 03:28:19;;;;;;;0.77;0.57;;;6.80;73.30;;;;;;5072080;28;20036;-67
2023/10/16 03:30:45;;;;;;;0.17;0.17;;;6.80;74.00;;;;;;5071895;28;20493;-67
2023/10/16 03:33:14;;;;;;;0.10;0.10;;;6.80;74.10;;;;;;5072852;28;20111;-67
2023/10/16 03:35:45;;;;;;;0.52;0.20;;;6.80;75.10;;;;;;5054665;28;20384;-67
2023/10/16 03:38:12;;;;;;;0.10;0.10;;;6.80;74.30;;;;;;5073038;28;20087;-67
2023/10/16 03:40:41;;;;;;;0.15;0.15;;;6.80;74.10;;;;;;5072005;28;20040;-67
2023/10/16 03:43:08;;;;;;;0.28;0.28;;;6.70;74.20;;;;;;5071988;28;20033;-67
2023/10/16 03:45:40;;;;;;;0.20;0.20;;;6.80;74.60;;;;;;5071156;28;20048;-67
2023/10/16 03:48:09;;;;;;;0.28;0.28;;;6.70;74.40;;;;;;5073178;28;20107;-67
2023/10/16 03:50:39;;;;;;;0.20;0.20;;;6.60;73.90;;;;;;5070637;28;20032;-67
2023/10/16 03:55:50;;;;;;;0.10;0.10;;;6.50;73.50;;;;;;5072489;28;20542;-67
2023/10/16 03:58:16;;;;;;;0.15;0.15;;;6.50;74.50;;;;;;5071483;28;20124;-67
2023/10/16 04:03:46;;;;;;;0.38;0.32;;;6.50;74.50;;;;;;5072442;28;19912;-67
2023/10/16 04:06:31;;;;;;;0.10;0.10;;;6.50;74.30;;;;;;5071080;28;20421;-67
2023/10/16 04:08:59;;;;;;;0.10;0.10;;;6.50;74.60;;;;;;5072730;28;20033;-67
2023/10/16 04:11:25;;;;;;;0.15;0.15;;;6.50;74.50;;;;;;5070255;28;20036;-67
2023/10/16 04:13:55;;;;;;;;;;;6.60;74.50;;;;;;5072919;28;20040;-67
2023/10/16 04:21:43;;;;;;;0.30;0.20;;;6.50;74.70;;;;;;5069998;28;20068;-66
2023/10/16 04:26:57;;;;;;;0.30;0.30;;;6.40;74.80;;;;;;5070705;28;20036;-67
2023/10/16 04:32:19;;;;;;;0.25;0.17;;;6.40;75.00;;;;;;5070341;28;20048;-69
2023/10/16 04:37:36;;;;;;;0.15;0.10;;;6.30;75.30;;;;;;5070991;28;20036;-69
2023/10/16 04:42:50;;;;;;;0.10;0.10;;;6.30;75.80;;;;;;5073552;28;20051;-69
2023/10/16 04:53:25;;;;;;;0.30;0.30;;;6.20;75.90;;;;;;5076203;28;20040;-69
2023/10/16 04:58:38;;;;;;;1.45;0.30;;;6.30;76.40;;;;;;5074880;28;20036;-69
2023/10/16 05:01:33;;;;;;;0.57;0.38;;;6.30;77.30;;;;;;5073882;28;20040;-69
2023/10/16 05:04:49;;;;;;;0.10;0.10;;;6.30;77.00;;;;;;5075636;28;20392;-69
2023/10/16 05:07:06;;;;;;;0.10;0.10;;;6.40;76.50;;;;;;5074418;28;20274;-67
2023/10/16 05:10:12;;;;;;;0.17;0.10;;;6.40;76.60;;;;;;5075849;28;20036;-67
2023/10/16 05:21:16;;;;;;;0.35;0.30;;;6.50;76.70;;;;;;5074438;28;20039;-69
2023/10/16 06:15:49;;;;;;;9.75;0.32;;;7.20;75.30;;;;;;5074135;28;20066;-69
2023/10/16 06:18:15;;;;;;;0.20;0.20;;;7.20;75.20;;;;;;5074590;28;20043;-69
2023/10/16 06:20:43;;;;;;;0.30;0.28;;;7.30;75.20;;;;;;5073239;28;20051;-69
2023/10/16 06:23:11;;;;;;;0.22;0.20;;;7.30;74.90;;;;;;5073165;28;20057;-69
2023/10/16 06:25:37;;;;;;;0.30;0.30;;;7.40;74.80;;;;;;5073948;28;20067;-69
2023/10/16 06:28:11;;;;;;;0.20;0.20;;;7.40;74.40;;;;;;5073105;28;20067;-69
2023/10/16 06:30:38;;;;;;;0.28;0.20;;;7.50;73.70;;;;;;5073446;28;20119;-69
2023/10/16 06:33:05;;;;;;;0.77;0.50;;;7.50;74.20;;;;;;5073965;28;20060;-69
2023/10/16 06:35:32;;;;;;;3.95;0.55;;;7.60;74.00;;;;;;5073550;28;20037;-69
2023/10/16 06:38:00;;;;;;;1.42;0.68;;;7.60;73.40;;;;;;5074108;28;20032;-69
2023/10/16 06:40:27;;;;;;;1.40;1.05;;;7.60;73.90;;;;;;5071851;28;20158;-69
2023/10/16 06:43:13;;;;;;;0.65;0.43;;;7.60;74.00;;;;;;5072837;28;20025;-69
2023/10/16 06:45:41;;;;;;;1.23;0.57;;;7.60;73.40;;;;;;5073716;28;20034;-69
2023/10/16 06:48:14;;;;;;;1.02;0.43;;;7.70;73.70;;;;;;5073914;28;20547;-69
2023/10/16 06:51:14;;;;;;;0.57;0.30;;;7.60;73.60;;;;;;5071752;28;20442;-69
2023/10/16 06:53:40;;;;;;;4.15;1.83;;;7.60;74.10;;;;;;5073755;28;20036;-69
2023/10/16 06:56:06;;;;;;;2.28;1.23;;;7.60;74.10;;;;;;5072135;28;20033;-69
2023/10/16 06:58:34;;;;;;;0.30;0.30;;;7.60;74.00;;;;;;5072589;28;20557;-69
2023/10/16 07:01:01;;;;;;;0.95;0.45;;;7.70;74.30;;;;;;5072688;28;20041;-69
2023/10/16 07:03:28;;;;;;;0.10;0.10;;;7.70;74.20;;;;;;5073372;28;20089;-69
2023/10/16 07:05:54;;;;;;;0.52;0.32;;;7.80;74.00;;;;;;5070796;28;20071;-69
2023/10/16 07:08:22;;;;;;;;;;;7.80;74.10;;;;;;5072960;28;20044;-69
2023/10/16 07:11:11;;;;;;;0.10;0.10;;;7.80;74.10;;;;;;5071337;28;20269;-69
2023/10/16 07:13:40;;;;;;;0.10;0.10;;;7.90;74.30;;;;;;5069624;28;20017;-69
2023/10/16 07:16:07;;;;;;;0.63;0.45;;;7.80;74.30;;;;;;5055213;28;20036;-69
2023/10/16 07:18:35;;;;;;;0.40;0.20;;;7.80;74.60;;;;;;5072138;28;20029;-69
2023/10/16 07:23:47;;;;;;;0.77;0.30;;;7.90;74.70;;;;;;5072315;28;20112;-69
2023/10/16 07:26:19;;;;;;;;;;;7.80;74.80;;;;;;5072012;28;20110;-69
2023/10/16 07:28:49;;;;;;;0.10;0.10;;;7.80;74.90;;;;;;5087989;28;19924;-69
2023/10/16 07:31:16;;;;;;;0.40;0.35;;;7.90;74.70;;;;;;5072126;28;20048;-69
2023/10/16 07:33:45;;;;;;;0.10;0.10;;;8.00;74.60;;;;;;5071536;28;20550;-69
2023/10/16 07:36:12;;;;;;;0.03;0.03;;;8.00;74.00;;;;;;5071390;28;20064;-69
2023/10/16 07:38:38;;;;;;;;;;;8.20;73.90;;;;;;5073618;28;20036;-69
2023/10/16 07:41:04;;;;;;;0.75;0.43;;;8.20;73.20;;;;;;5071954;28;19934;-69
2023/10/16 07:43:33;;;;;;;1.17;0.50;;;8.30;73.40;;;;;;5071626;28;20405;-69
2023/10/16 07:46:27;;;;;;;0.15;0.15;;;8.30;72.90;;;;;;5054365;28;20029;-69
2023/10/16 07:48:54;;;;;;;1.05;0.70;;;8.50;73.00;;;;;;5073027;28;20072;-69
2023/10/16 07:51:25;;;;;;;0.57;0.50;;;8.50;72.50;;;;;;5070479;28;20438;-69
2023/10/16 07:53:52;;;;;;;0.30;0.30;;;8.50;72.20;;;;;;5055056;28;20494;-69
2023/10/16 07:59:09;;;;;;;1.48;0.88;;;8.70;71.90;;;;;;5071728;28;20040;-69
2023/10/16 08:01:59;;;;;;;0.80;0.50;;;8.70;71.70;;;;;;5070638;28;20048;-69
2023/10/16 08:14:54;;;;;;;0.52;0.38;;;9.30;71.10;;;;;;5071559;28;20130;-69
2023/10/16 08:17:23;;;;;;;0.20;0.20;;;9.30;71.00;;;;;;5071878;28;20027;-70
2023/10/16 08:19:50;;;;;;;1.05;0.60;;;9.40;70.90;;;;;;5070961;28;20047;-69
2023/10/16 08:22:17;;;;;;;3.60;1.10;;;9.50;69.90;;;;;;5053408;28;20036;-69
2023/10/16 08:33:09;;;;;;;1.10;0.40;;;9.60;69.30;;;;;;5072064;28;20141;-69
2023/10/16 08:35:39;;;;;;;0.43;0.43;;;9.70;69.00;;;;;;5070872;28;20040;-69
2023/10/16 08:38:20;;;;;;;0.25;0.20;;;9.80;68.50;;;;;;5071123;28;20082;-70
2023/10/16 08:41:07;;;;;;;0.88;0.40;;;9.90;68.40;;;;;;5070171;28;20068;-69
2023/10/16 08:46:24;;;;;;;0.30;0.22;;;10.00;68.20;;;;;;5070591;28;20129;-69
2023/10/16 08:48:57;;;;;;;0.22;0.10;;;10.10;68.40;;;;;;5072334;28;20498;-69
2023/10/16 08:51:23;;;;;;;0.22;0.22;;;10.10;68.10;;;;;;5069999;28;20076;-69
2023/10/16 08:53:58;;;;;;;0.30;0.30;;;10.20;67.10;;;;;;5072190;28;20394;-70
2023/10/16 08:56:25;;;;;;;0.52;0.30;;;10.30;67.80;;;;;;5071876;28;20070;-69
2023/10/16 08:58:55;;;;;;;0.60;0.22;;;10.20;67.40;;;;;;5072104;28;20029;-70
2023/10/16 09:01:24;;;;;;;0.20;0.20;;;10.20;67.60;;;;;;5069796;28;20040;-70
2023/10/16 09:04:11;;;;;;;0.38;0.32;;;10.30;67.50;;;;;;5071927;28;20025;-70
2023/10/16 09:06:38;;;;;;;0.70;0.40;;;10.50;66.90;;;;;;5070528;28;20052;-70
2023/10/16 09:09:16;;;;;;;0.13;0.13;;;10.50;66.70;;;;;;5070804;28;20511;-69
2023/10/16 09:12:10;;;;;;;0.43;0.30;;;10.50;66.40;;;;;;5069708;28;20404;-69
2023/10/16 09:14:38;;;;;;;0.65;0.38;;;10.60;66.90;;;;;;5070829;28;20020;-69
2023/10/16 09:17:06;;;;;;;0.47;0.30;;;10.60;66.70;;;;;;5070128;28;20153;-69
2023/10/16 09:19:53;;;;;;;0.63;0.50;;;10.60;67.10;;;;;;5070547;28;20029;-69
2023/10/16 09:22:23;;;;;;;2.40;1.05;;;10.70;67.10;;;;;;5069578;28;20046;-69
2023/10/16 09:24:51;;;;;;;3.08;0.90;;;10.80;65.80;;;;;;5070581;28;20044;-70
2023/10/16 09:27:30;;;;;;;0.80;0.70;;;10.80;65.70;;;;;;5053517;28;20381;-70
2023/10/16 09:30:00;;;;;;;0.75;0.50;;;11.00;65.80;;;;;;5075510;28;20479;-69
2023/10/16 09:32:39;;;;;;;0.55;0.50;;;11.20;65.50;;;;;;5073187;28;20446;-70
2023/10/16 09:35:11;;;;;;;0.68;0.30;;;11.40;64.50;;;;;;5074808;28;20115;-70
2023/10/16 09:38:18;;;;;;;1.35;0.85;;;11.50;64.60;;;;;;5075343;28;20040;-70
2023/10/16 09:43:40;;;;;;;0.10;0.10;;;11.80;63.60;;;;;;5074424;28;20059;-70
2023/10/16 09:46:33;;;;;;;0.50;0.30;;;11.60;62.00;;;;;;5067278;28;20374;-70
2023/10/16 09:49:05;;;;;;;0.43;0.30;;;11.40;63.10;;;;;;5074206;28;20043;-70
2023/10/16 09:51:35;;;;;;;0.63;0.52;;;11.30;64.20;;;;;;5072895;28;20226;-70
2023/10/16 09:54:02;;;;;;;0.43;0.22;;;11.40;63.70;;;;;;5074832;28;20037;-70
2023/10/16 09:59:32;;;;;;;0.45;0.40;;;12.20;63.10;;;;;;5073936;28;20072;-70
2023/10/16 10:02:09;;;;;;;0.10;0.10;;;12.40;62.10;;;;;;5072724;28;20060;-70
2023/10/16 10:04:43;;;;;;;0.40;0.40;;;12.30;62.10;;;;;;5073336;28;20375;-70
2023/10/16 10:07:38;;;;;;;0.32;0.20;;;12.30;62.00;;;;;;5074413;28;20056;-70
2023/10/16 10:12:57;;;;;;;0.08;0.08;;;12.40;61.20;;;;;;5073750;28;20464;-70
2023/10/16 10:16:20;;;;;;;0.10;0.10;;;12.40;60.30;;;;;;5072746;28;20432;-70
2023/10/16 10:18:47;;;;;;;1.17;0.75;;;12.50;60.60;;;;;;5074626;28;20025;-70
2023/10/16 10:21:44;;;;;;;0.60;0.30;;;12.50;58.80;;;;;;5072058;28;20087;-70
2023/10/16 10:27:02;;;;;;;0.68;0.52;;;12.50;59.00;;;;;;5073925;28;20036;-70
2023/10/16 10:29:29;;;;;;;1.17;0.35;;;12.50;60.30;;;;;;5073274;28;20033;-70
2023/10/16 10:32:05;;;;;;;0.10;0.10;;;12.60;59.10;;;;;;5072071;28;20047;-70
2023/10/16 10:34:31;;;;;;;0.05;0.05;;;12.70;58.40;;;;;;5073739;28;20025;-69
2023/10/16 10:36:58;;;;;;;0.15;0.10;;;13.10;58.40;;;;;;5073582;28;20044;-70
2023/10/16 10:42:28;;;;;;;0.15;0.15;;;13.70;55.80;;;;;;5072991;28;20505;-70
2023/10/16 10:45:17;;;;;;;0.22;0.10;;;13.90;54.40;;;;;;5073451;28;20477;-70
2023/10/16 10:47:43;;;;;;;0.30;0.20;;;13.80;53.60;;;;;;5072627;28;20037;-70
2023/10/16 10:50:13;;;;;;;0.43;0.30;;;13.80;52.70;;;;;;5054975;28;20032;-70
2023/10/16 10:52:43;;;;;;;0.20;0.20;;;14.00;52.70;;;;;;5072713;28;20020;-70
2023/10/16 10:57:58;;;;;;;0.30;0.22;;;14.60;52.10;;;;;;5073685;28;20082;-70
2023/10/16 11:03:22;;;;;;;0.10;0.10;;;15.10;49.90;;;;;;5072519;28;20031;-70
2023/10/16 11:05:49;;;;;;;0.05;0.05;;;15.10;50.30;;;;;;5067957;28;20121;-70
2023/10/16 11:10:46;;;;;;;0.30;0.30;;;15.20;48.80;;;;;;5051212;28;20497;-69
2023/10/16 11:13:15;;;;;;;0.10;0.10;;;15.30;48.30;;;;;;5053413;28;20105;-69
2023/10/16 11:16:00;;;;;;;0.52;0.52;;;15.30;48.70;;;;;;5051542;28;20095;-69
2023/10/16 11:18:26;;;;;;;1.15;1.05;;;15.30;48.90;;;;;;5052150;28;20021;-69
2023/10/16 11:20:59;;;;;;;0.43;0.43;;;15.50;48.30;;;;;;5052203;28;20045;-69
2023/10/16 11:23:25;;;;;;;0.20;0.20;;;15.70;47.90;;;;;;5052262;28;20494;-70
2023/10/16 11:25:54;;;;;;;0.10;0.10;;;15.80;47.00;;;;;;5051329;28;20394;-69
2023/10/16 11:28:28;;;;;;;0.73;0.40;;;15.90;47.10;;;;;;5052033;28;20040;-69
2023/10/16 11:30:56;;;;;;;0.40;0.20;;;16.00;47.00;;;;;;5052367;28;20048;-69
2023/10/16 11:33:34;;;;;;;1.27;0.30;;;16.10;46.40;;;;;;5034959;28;20059;-69
2023/10/16 11:36:03;;;;;;;0.10;0.10;;;16.20;44.90;;;;;;5052852;28;20522;-69
2023/10/16 11:38:32;;;;;;;0.20;0.20;;;16.20;43.60;;;;;;5051759;28;20033;-69
2023/10/16 11:41:04;;;;;;;0.35;0.35;;;16.30;44.10;;;;;;5050783;28;20041;-69
2023/10/16 11:43:34;;;;;;;0.10;0.10;;;16.20;44.60;;;;;;5051882;28;20083;-69
2023/10/16 11:46:06;;;;;;;0.30;0.30;;;16.60;43.60;;;;;;5034753;28;20036;-69
2023/10/16 11:51:18;;;;;;;0.65;0.30;;;16.60;43.40;;;;;;5051441;28;20155;-69
2023/10/16 11:53:44;;;;;;;0.10;0.10;;;16.70;44.60;;;;;;5052048;28;20103;-69
2023/10/16 11:56:18;;;;;;;0.28;0.20;;;17.00;43.90;;;;;;5059627;28;20028;-69
2023/10/16 11:58:44;;;;;;;0.73;0.50;;;17.10;43.50;;;;;;5071461;28;20081;-69
2023/10/16 12:01:11;;;;;;;;;;;17.20;42.40;;;;;;5070980;28;20118;-69
2023/10/16 12:03:39;;;;;;;0.20;0.20;;;17.50;41.50;;;;;;5071044;28;19955;-69
2023/10/16 12:06:23;;;;;;;0.10;0.10;;;17.90;40.60;;;;;;5070932;28;20032;-69
2023/10/16 12:08:49;;;;;;;0.10;0.10;;;18.60;39.50;;;;;;5069034;28;20080;-69
2023/10/16 12:11:15;;;;;;;0.52;0.20;;;18.70;39.30;;;;;;5057864;28;20486;-69
2023/10/16 12:13:42;;;;;;;2.72;0.17;;;18.70;39.00;;;;;;5060442;28;20033;-69
2023/10/16 12:16:08;;;;;;;;;;;18.70;38.90;;;;;;5061485;28;20478;-69
2023/10/16 12:18:34;;;;;;;0.30;0.20;;;18.70;38.50;;;;;;5056911;28;20430;-68
2023/10/16 12:21:06;;;;;;;0.10;0.10;;;18.60;39.60;;;;;;5059681;28;20041;-69
2023/10/16 12:23:36;;;;;;;0.30;0.22;;;18.40;40.10;;;;;;5062550;28;20095;-69
2023/10/16 12:26:04;;;;;;;0.00;0.00;;;18.40;40.00;;;;;;5061562;28;20028;-69
2023/10/16 12:28:32;;;;;;;0.03;0.03;;;18.40;39.50;;;;;;5062341;28;20029;-69
2023/10/16 12:30:58;;;;;;;0.10;0.10;;;18.60;38.90;;;;;;5047725;28;20078;-69
2023/10/16 12:33:28;;;;;;;0.10;0.10;;;18.80;39.10;;;;;;5059786;28;20371;-70
2023/10/16 12:35:55;;;;;;;0.10;0.10;;;18.90;38.50;;;;;;5063635;28;20041;-69
2023/10/16 12:38:44;;;;;;;0.20;0.10;;;19.10;37.40;;;;;;5050916;28;20028;-69
2023/10/16 12:41:10;;;;;;;0.10;0.10;;;19.40;37.40;;;;;;5071139;28;20052;-69
2023/10/16 12:43:36;;;;;;;0.47;0.20;;;19.90;35.30;;;;;;5071265;28;20071;-69
2023/10/16 12:46:03;;;;;;;;;;;20.20;35.10;;;;;;5072493;28;20047;-69
2023/10/16 12:48:29;;;;;;;0.85;0.68;;;20.20;35.10;;;;;;5071076;28;20339;-69
2023/10/16 12:50:59;;;;;;;0.43;0.30;;;20.50;33.80;;;;;;5071090;28;20118;-69
2023/10/16 12:53:45;;;;;;;0.38;0.25;;;20.80;34.60;;;;;;5070978;28;20033;-70
2023/10/16 12:56:12;;;;;;;0.10;0.10;;;21.10;34.00;;;;;;5071983;28;20062;-69
2023/10/16 12:58:38;;;;;;;0.10;0.10;;;21.30;33.90;;;;;;5072163;28;20485;-69
2023/10/16 13:01:05;;;;;;;0.35;0.20;;;21.50;33.70;;;;;;5054415;28;20559;-69
2023/10/16 13:03:33;;;;;;;0.30;0.30;;;21.60;32.90;;;;;;5053873;28;20032;-69
2023/10/16 13:06:05;;;;;;;0.03;0.03;;;21.60;32.50;;;;;;5055619;28;20057;-69
2023/10/16 13:08:33;;;;;;;0.20;0.20;;;21.70;32.00;;;;;;5056038;28;20033;-69
2023/10/16 13:10:59;;;;;;;1.30;0.45;;;21.80;32.00;;;;;;5036963;28;20067;-69
2023/10/16 13:13:25;;;;;;;0.20;0.20;;;21.80;31.60;;;;;;5059248;28;20037;-69
2023/10/16 13:15:51;;;;;;;;;;;21.80;31.40;;;;;;5055690;28;20428;-69
2023/10/16 13:21:07;;;;;;;0.20;0.20;;;22.20;30.40;;;;;;5053445;28;20071;-69
2023/10/16 13:23:36;;;;;;;0.22;0.22;;;22.10;31.20;;;;;;5054242;28;20094;-69
2023/10/16 13:26:07;;;;;;;0.38;0.20;;;22.30;30.40;;;;;;5053893;28;20036;-69
2023/10/16 13:28:36;;;;;;;0.13;0.13;;;22.20;30.60;;;;;;5055504;28;20383;-69
2023/10/16 13:31:04;;;;;;;0.28;0.20;;;22.10;31.00;;;;;;5053025;28;20037;-69
2023/10/16 13:36:17;;;;;;;0.10;0.10;;;21.80;31.40;;;;;;5055109;28;20531;-69
2023/10/16 13:38:48;;;;;;;0.60;0.40;;;21.70;30.80;;;;;;5054095;28;20043;-69
2023/10/16 13:43:59;;;;;;;0.35;0.32;;;21.60;31.70;;;;;;5055409;28;20037;-69
2023/10/16 13:46:26;;;;;;;0.30;0.30;;;21.70;31.30;;;;;;5054828;28;20373;-69
2023/10/16 13:48:52;;;;;;;0.55;0.35;;;21.80;30.30;;;;;;5053827;28;20048;-70
2023/10/16 13:51:18;;;;;;;;;;;21.80;30.50;;;;;;5053282;28;20441;-69
2023/10/16 13:56:29;;;;;;;3.35;1.40;;;21.50;30.50;;;;;;5054660;28;20114;-69
2023/10/16 13:58:58;;;;;;;0.98;0.65;;;21.40;31.40;;;;;;5053808;28;20432;-69
2023/10/16 14:01:24;;;;;;;1.05;0.55;;;21.20;31.80;;;;;;5052497;28;20059;-69
2023/10/16 14:03:50;;;;;;;2.20;1.10;;;21.10;31.40;;;;;;5053303;28;20029;-69
2023/10/16 14:06:22;;;;;;;2.13;1.38;;;21.00;31.90;;;;;;5053093;28;20044;-69
2023/10/16 14:08:48;;;;;;;0.63;0.47;;;20.80;32.40;;;;;;5053624;28;20048;-69
2023/10/16 14:11:14;;;;;;;1.45;0.35;;;20.80;32.40;;;;;;5053536;28;20048;-70
2023/10/16 14:13:40;;;;;;;1.85;1.27;;;20.60;32.50;;;;;;5054333;28;20025;-69
2023/10/16 14:18:38;;;;;;;0.28;0.20;;;20.20;32.70;;;;;;5053503;28;19924;-69
2023/10/16 14:21:08;;;;;;;0.20;0.20;;;20.20;33.70;;;;;;5051942;28;20048;-69
2023/10/16 14:23:38;;;;;;;0.75;0.75;;;20.30;32.80;;;;;;5037027;28;20061;-69
2023/10/16 14:26:11;;;;;;;0.25;0.25;;;20.20;32.50;;;;;;5052708;28;20047;-69
2023/10/16 14:31:25;;;;;;;0.28;0.28;;;20.70;32.10;;;;;;5052276;28;20067;-70
2023/10/16 14:33:53;;;;;;;0.30;0.25;;;20.90;31.60;;;;;;5053905;28;20029;-69
2023/10/16 14:36:22;;;;;;;0.20;0.20;;;21.10;31.50;;;;;;5053973;28;20132;-70
2023/10/16 14:38:48;;;;;;;0.15;0.15;;;21.40;30.30;;;;;;5053121;28;20485;-69
2023/10/16 14:41:17;;;;;;;0.22;0.13;;;21.10;31.20;;;;;;5053088;28;20056;-70
2023/10/16 14:43:48;;;;;;;0.17;0.17;;;21.00;31.70;;;;;;5054066;28;20029;-69
2023/10/16 14:46:15;;;;;;;0.98;0.88;;;21.20;31.00;;;;;;5055837;28;20112;-69
2023/10/16 14:48:45;;;;;;;0.20;0.20;;;21.40;30.90;;;;;;5060180;28;20472;-69
2023/10/16 14:51:13;;;;;;;0.88;0.75;;;21.20;30.80;;;;;;5035581;28;20060;-69
2023/10/16 14:53:46;;;;;;;0.43;0.30;;;21.10;30.90;;;;;;5052619;28;20432;-69
2023/10/16 14:58:57;;;;;;;0.52;0.25;;;20.70;31.80;;;;;;5073085;28;20051;-69
2023/10/16 15:01:27;;;;;;;1.25;0.60;;;20.20;32.40;;;;;;5053617;28;20405;-69
2023/10/16 15:03:56;;;;;;;0.32;0.30;;;19.70;33.40;;;;;;5058874;28;20025;-69
2023/10/16 15:06:22;;;;;;;0.20;0.20;;;19.20;34.60;;;;;;5072916;28;20064;-69
2023/10/16 15:08:49;;;;;;;0.68;0.68;;;18.70;35.60;;;;;;5073413;28;20037;-69
2023/10/16 15:11:16;;;;;;;1.70;1.15;;;18.30;36.80;;;;;;5072160;28;20033;-69
2023/10/16 15:13:42;;;;;;;0.70;0.47;;;17.80;37.40;;;;;;5072125;28;20024;-69
2023/10/16 15:16:09;;;;;;;0.57;0.38;;;17.50;38.30;;;;;;5071464;28;20125;-69
2023/10/16 15:18:38;;;;;;;4.35;1.23;;;17.20;38.80;;;;;;5072272;28;20032;-69
2023/10/16 15:21:08;;;;;;;4.90;1.00;;;16.90;39.40;;;;;;5070721;28;20044;-69
2023/10/16 15:23:35;;;;;;;1.10;0.75;;;16.60;40.10;;;;;;5072225;28;20436;-69
2023/10/16 15:26:02;;;;;;;1.25;0.80;;;16.30;40.40;;;;;;5070866;28;20043;-69
2023/10/16 15:28:29;;;;;;;1.70;0.80;;;16.10;40.60;;;;;;5055343;28;20032;-69
2023/10/16 15:30:57;;;;;;;1.33;0.65;;;15.90;41.50;;;;;;5070868;28;20496;-69
2023/10/16 15:36:08;;;;;;;1.52;1.13;;;15.40;42.30;;;;;;5071605;28;20176;-69
2023/10/16 15:38:34;;;;;;;4.65;1.60;;;15.20;43.30;;;;;;5054755;28;20032;-69
2023/10/16 15:41:00;;;;;;;1.75;1.05;;;15.00;43.90;;;;;;5070766;28;20408;-69
2023/10/16 15:43:26;;;;;;;1.15;0.82;;;14.80;44.40;;;;;;5071700;28;20514;-69
2023/10/16 15:45:53;;;;;;;1.67;0.93;;;14.60;45.20;;;;;;5072608;28;20047;-69
2023/10/16 15:48:19;;;;;;;1.17;0.77;;;14.40;45.80;;;;;;5072987;28;20154;-69
2023/10/16 15:50:46;;;;;;;1.52;1.05;;;14.20;46.60;;;;;;5070472;28;20174;-69
2023/10/16 15:53:12;;;;;;;0.68;0.57;;;14.00;47.10;;;;;;5071256;28;20024;-69
2023/10/16 15:55:38;;;;;;;0.77;0.60;;;13.80;47.10;;;;;;5072370;28;20039;-69
2023/10/16 15:58:06;;;;;;;;;;;13.70;48.30;;;;;;5055395;28;20473;-69
2023/10/16 16:03:17;;;;;;;3.03;1.35;;;13.20;48.70;;;;;;5071361;28;20463;-69
2023/10/16 16:05:43;;;;;;;5.38;2.13;;;13.10;50.00;;;;;;5070798;28;20063;-69
2023/10/16 16:08:09;;;;;;;2.30;1.48;;;12.90;50.40;;;;;;5071404;28;20033;-69
2023/10/16 16:10:39;;;;;;;2.35;1.70;;;12.80;50.70;;;;;;5071567;28;20037;-69
2023/10/16 16:13:05;;;;;;;4.53;1.33;;;12.60;51.00;;;;;;5072845;28;20424;-69
2023/10/16 16:15:31;;;;;;;;;;;12.50;51.70;;;;;;5054246;28;20469;-69
2023/10/16 16:18:00;;;;;;;1.90;1.20;;;12.30;51.60;;;;;;5071162;28;19962;-69
2023/10/16 16:20:28;;;;;;;1.67;1.00;;;12.10;52.30;;;;;;5070305;28;20040;-69